Oakes, ND

4:28 AM CST on January 28, 2015 (GMT -0600)
Oakes | Change Station
CLOSE
Current Station
Airport
Location: Oakes,
Elevation: 1335 ft
Nearby Weather Stations
Active Advisory: Special Statement Active Notice: Record Report

Elev 1335 ft 46.17 °N, 98.08 °W | Updated 13 minutes ago

Mist
Mist
28 °F
Feels Like 21 °F
N
7
Wind Variable Wind from ESE

Today
High -- | Low -- °F
--% Chance of Precip.
Yesterday
High -- | Low -- °F
Precip. -- in
7:59 AM 5:31 PM
Waxing Gibbous, 63% visible
Pressure 29.77 in
Visibility 4.0 miles
Clouds
Windchill 21 °F
Dew Point 28 °F
Humidity 100%
Rainfall 0.00 in
Snow Depth Not available.
UV Not available.
Pollen .10 out of 12
Air Quality Not available.
Flu Activity Not available.
METAR K2D5 281015Z AUTO 11006KT 4SM BR M02/M02 A2977 RMK AO2

More Conditions Fewer Conditions

Pressure 29.77 in
Visibility 4.0 miles
Clouds
Windchill 21 °F
Dew Point 28 °F
Humidity 100%
Rainfall 0.00 in
Snow Depth Not available.
UV Not available.
Pollen .10 out of 12
Air Quality Not available.
Flu Activity Not available.
METAR K2D5 281015Z AUTO 11006KT 4SM BR M02/M02 A2977 RMK AO2

More Conditions Fewer Conditions

10-Day Weather Forecast

Almanac

Astronomy

Jan. 28, 2015 Rise Set
Actual Time
Civil Twilight
Nautical Twilight
Astronomical Twilight
Moon
Length of Visible Light
Length of Day
Tomorrow will be .
, % of the Moon is Illuminated

Today's Extremes

State Highs State Lows

Community

WunderPhotos

Upload Photos

1,791,121 photos uploaded!

WunderBlogs® & News

Nearby

Air Quality

  Air Quality AQ Index Pollutant
Not available.

Snow Depth

Station Depth Elevation

Earthquake Activity

City Distance Mag. Time & Date
Minimum magnitude displayed is 2.5.

Coastal Water Temperatures

Place Temperature

Nearby Weather Stations